createdAt,value
2018-11-26T00:00:21.168Z,6.08
2018-11-26T00:02:48.921Z,6.05
2018-11-26T00:05:16.235Z,6.04
2018-11-26T00:07:43.485Z,6.03
2018-11-26T00:10:22.018Z,5.95
2018-11-26T00:12:49.262Z,5.97
2018-11-26T00:15:16.530Z,5.79
2018-11-26T00:17:43.741Z,5.90
2018-11-26T00:20:11.040Z,5.92
2018-11-26T00:22:38.270Z,5.91
2018-11-26T00:25:06.029Z,5.95
2018-11-26T00:27:33.344Z,6.01
2018-11-26T00:30:00.591Z,5.95
2018-11-26T00:32:27.823Z,5.92
2018-11-26T00:34:55.018Z,5.96
2018-11-26T00:37:22.240Z,5.85
2018-11-26T00:39:49.516Z,5.90
2018-11-26T00:42:16.769Z,5.83
2018-11-26T00:44:43.994Z,5.86
2018-11-26T00:47:11.225Z,5.85
2018-11-26T00:49:38.417Z,5.85
2018-11-26T00:59:02.406Z,5.73
2018-11-26T01:01:30.040Z,5.80
2018-11-26T01:03:57.329Z,5.77
2018-11-26T01:06:25.063Z,5.65
2018-11-26T01:08:53.371Z,5.64
2018-11-26T01:11:20.597Z,5.68
2018-11-26T01:13:47.866Z,5.67
2018-11-26T01:16:15.116Z,5.22
2018-11-26T01:18:42.380Z,5.75
2018-11-26T01:21:09.549Z,5.67
2018-11-26T01:23:36.780Z,5.66
2018-11-26T01:26:04.167Z,5.50
2018-11-26T01:28:31.413Z,5.53
2018-11-26T01:30:58.640Z,5.65
2018-11-26T01:33:25.888Z,5.65
2018-11-26T01:35:53.159Z,5.72
2018-11-26T01:38:21.892Z,5.79
2018-11-26T01:40:51.595Z,5.43
2018-11-26T01:43:19.462Z,5.80
2018-11-26T01:45:46.721Z,5.76
2018-11-26T01:48:13.971Z,5.84
2018-11-26T01:50:41.195Z,5.89
2018-11-26T01:53:08.483Z,5.92
2018-11-26T01:55:35.776Z,5.96
2018-11-26T01:58:03.219Z,5.89
2018-11-26T02:00:30.648Z,5.97
2018-11-26T02:02:58.534Z,5.97
2018-11-26T02:05:25.750Z,5.89
2018-11-26T02:07:53.085Z,5.85
2018-11-26T02:10:20.660Z,5.91
2018-11-26T02:12:47.862Z,5.92
2018-11-26T02:15:47.495Z,5.94
2018-11-26T02:18:14.762Z,5.89
2018-11-26T02:20:42.127Z,5.92
2018-11-26T02:23:09.456Z,5.83
2018-11-26T02:25:36.932Z,5.86
2018-11-26T02:28:05.338Z,5.85
2018-11-26T02:30:32.612Z,5.83
2018-11-26T02:33:00.116Z,5.73
2018-11-26T02:35:27.465Z,5.69
2018-11-26T02:37:54.729Z,5.74
2018-11-26T02:40:24.927Z,5.75
2018-11-26T02:42:52.294Z,5.75
2018-11-26T02:45:19.628Z,5.79
2018-11-26T02:47:46.948Z,5.84
2018-11-26T02:50:14.266Z,5.71
2018-11-26T02:52:41.606Z,5.82
2018-11-26T02:55:08.973Z,5.80
2018-11-26T02:57:36.161Z,5.79
2018-11-26T03:00:04.132Z,5.84
2018-11-26T03:02:37.345Z,5.81
2018-11-26T03:05:11.499Z,5.82
2018-11-26T03:07:38.752Z,5.86
2018-11-26T03:10:10.481Z,5.70
2018-11-26T03:12:38.244Z,5.67
2018-11-26T03:15:08.478Z,5.70
2018-11-26T03:17:35.739Z,5.68
2018-11-26T03:20:03.139Z,5.75
2018-11-26T03:22:30.419Z,5.74
2018-11-26T03:25:04.024Z,5.79
2018-11-26T03:27:31.795Z,5.75
2018-11-26T03:29:59.095Z,5.77
2018-11-26T03:32:26.269Z,5.77
2018-11-26T03:35:00.546Z,5.72
2018-11-26T03:37:28.089Z,5.70
2018-11-26T03:39:55.314Z,5.71
2018-11-26T03:42:22.551Z,5.80
2018-11-26T03:45:00.055Z,5.72
2018-11-26T03:47:27.772Z,5.63
2018-11-26T03:49:54.994Z,5.65
2018-11-26T03:52:22.193Z,5.69
2018-11-26T03:54:49.490Z,5.60
2018-11-26T03:57:16.829Z,5.55
2018-11-26T03:59:44.105Z,5.55
2018-11-26T04:02:11.556Z,5.60
2018-11-26T04:04:38.829Z,5.48
2018-11-26T04:07:06.199Z,5.56
2018-11-26T04:09:33.457Z,5.61
2018-11-26T04:12:00.726Z,5.69
2018-11-26T04:14:27.928Z,5.70
2018-11-26T04:16:55.811Z,5.76
2018-11-26T04:19:23.124Z,5.76
2018-11-26T04:21:50.394Z,5.61
2018-11-26T04:24:17.622Z,5.65
2018-11-26T04:26:46.722Z,5.69
2018-11-26T04:29:14.016Z,5.72
2018-11-26T04:31:41.230Z,5.76
2018-11-26T04:34:08.503Z,5.72
2018-11-26T04:36:35.778Z,5.71
2018-11-26T04:39:03.481Z,5.70
2018-11-26T04:41:30.712Z,5.66
2018-11-26T04:43:57.999Z,5.21
2018-11-26T04:46:25.241Z,5.62
2018-11-26T04:48:52.706Z,5.65
2018-11-26T04:51:19.834Z,5.70
2018-11-26T04:53:47.127Z,5.62
2018-11-26T04:56:14.366Z,5.68
2018-11-26T04:58:41.731Z,5.67
2018-11-26T05:01:08.938Z,5.65
2018-11-26T05:03:36.202Z,5.66
2018-11-26T05:06:03.526Z,5.64
2018-11-26T05:08:30.815Z,5.67
2018-11-26T05:10:58.034Z,5.71
2018-11-26T05:13:25.324Z,5.64
2018-11-26T05:15:52.586Z,5.64
2018-11-26T05:18:19.860Z,5.61
2018-11-26T05:20:48.016Z,5.64
2018-11-26T05:23:15.251Z,5.51
2018-11-26T05:25:42.943Z,5.37
2018-11-26T05:28:10.152Z,5.33
2018-11-26T05:30:37.514Z,5.34
2018-11-26T05:33:05.576Z,5.44
2018-11-26T05:35:32.967Z,5.50
2018-11-26T05:38:00.213Z,5.59
2018-11-26T05:40:27.410Z,5.60
2018-11-26T05:42:54.643Z,5.57
2018-11-26T05:45:23.856Z,5.59
2018-11-26T05:47:51.133Z,5.62
2018-11-26T05:50:19.779Z,5.51
2018-11-26T05:52:47.432Z,5.56
2018-11-26T05:55:15.727Z,5.63
2018-11-26T05:57:43.681Z,5.67
2018-11-26T06:00:21.092Z,5.63
2018-11-26T06:02:48.383Z,5.68
2018-11-26T06:05:15.688Z,5.59
2018-11-26T06:07:43.002Z,5.41
2018-11-26T06:10:10.369Z,5.59
2018-11-26T06:12:37.657Z,5.57
2018-11-26T06:15:08.822Z,5.61
2018-11-26T06:17:36.071Z,5.60
2018-11-26T06:20:03.701Z,5.59
2018-11-26T06:22:30.965Z,5.57
2018-11-26T06:24:58.251Z,5.56
2018-11-26T06:27:25.567Z,5.54
2018-11-26T06:29:52.858Z,5.59
2018-11-26T06:32:20.055Z,5.61
2018-11-26T06:34:48.952Z,5.64
2018-11-26T06:37:16.283Z,5.67
2018-11-26T06:39:43.550Z,5.61
2018-11-26T06:42:10.794Z,5.59
2018-11-26T06:44:38.029Z,5.64
2018-11-26T06:47:05.473Z,5.69
2018-11-26T06:49:32.871Z,5.69
2018-11-26T06:52:00.187Z,5.71
2018-11-26T06:54:27.425Z,5.71
2018-11-26T06:56:54.750Z,5.73
2018-11-26T06:59:22.014Z,5.72
2018-11-26T07:01:56.185Z,5.57
2018-11-26T07:04:23.725Z,5.63
2018-11-26T07:06:52.686Z,5.66
2018-11-26T07:09:19.884Z,5.20
2018-11-26T07:11:47.095Z,5.46
2018-11-26T07:14:14.362Z,5.52
2018-11-26T07:16:41.616Z,5.58
2018-11-26T07:19:08.935Z,5.53
2018-11-26T07:21:36.199Z,5.41
2018-11-26T07:24:03.527Z,5.43
2018-11-26T07:26:34.902Z,5.43
2018-11-26T07:29:02.105Z,5.46
2018-11-26T07:31:29.750Z,5.51
2018-11-26T07:33:56.971Z,5.58
2018-11-26T07:36:24.191Z,5.56
2018-11-26T07:38:51.521Z,5.56
2018-11-26T07:41:18.754Z,5.55
2018-11-26T07:43:46.066Z,5.40
2018-11-26T07:46:13.290Z,5.42
2018-11-26T07:48:40.479Z,5.46
2018-11-26T07:51:07.706Z,5.42
2018-11-26T07:53:34.907Z,5.17
2018-11-26T07:56:02.094Z,5.42
2018-11-26T07:58:29.316Z,5.42
2018-11-26T08:00:56.563Z,5.30
2018-11-26T08:03:23.980Z,5.26
2018-11-26T08:05:51.186Z,5.37
2018-11-26T08:08:18.406Z,5.38
2018-11-26T08:10:45.630Z,5.42
2018-11-26T08:13:12.921Z,5.49
2018-11-26T08:15:40.200Z,5.59
2018-11-26T08:18:07.423Z,5.61
2018-11-26T08:20:34.671Z,5.64
2018-11-26T08:23:01.903Z,5.68
2018-11-26T08:25:29.145Z,5.63
2018-11-26T08:27:56.328Z,5.64
2018-11-26T08:30:25.001Z,5.64
2018-11-26T08:32:56.280Z,5.54
2018-11-26T08:35:23.660Z,5.59
2018-11-26T08:37:56.680Z,5.62
2018-11-26T08:40:25.414Z,5.65
2018-11-26T08:42:57.616Z,5.71
2018-11-26T08:45:30.509Z,5.74
2018-11-26T08:48:29.805Z,5.62
2018-11-26T08:51:01.074Z,5.59
2018-11-26T08:53:28.544Z,5.61
2018-11-26T08:55:55.857Z,5.64
2018-11-26T08:58:23.165Z,5.69
2018-11-26T09:00:56.339Z,5.60
2018-11-26T09:03:28.184Z,5.61
2018-11-26T09:06:01.582Z,5.67
2018-11-26T09:08:29.955Z,5.72
2018-11-26T09:10:57.255Z,5.72
2018-11-26T09:13:24.517Z,5.74
2018-11-26T09:15:51.825Z,5.74
2018-11-26T09:18:19.067Z,5.77
2018-11-26T09:20:46.322Z,5.72
2018-11-26T09:23:13.681Z,5.69
2018-11-26T09:25:40.903Z,5.64
2018-11-26T09:28:08.192Z,5.68
2018-11-26T09:30:35.493Z,5.71
2018-11-26T09:33:02.749Z,5.59
2018-11-26T09:35:30.165Z,5.69
2018-11-26T09:37:57.414Z,5.72
2018-11-26T09:40:24.618Z,5.76
2018-11-26T09:42:51.806Z,5.82
2018-11-26T09:45:19.013Z,5.86
2018-11-26T09:47:46.290Z,5.83
2018-11-26T09:50:14.712Z,5.87
2018-11-26T09:52:42.021Z,5.81
2018-11-26T09:55:10.214Z,5.87
2018-11-26T09:57:37.520Z,5.93
2018-11-26T10:00:08.975Z,5.91
2018-11-26T10:02:36.254Z,5.98
2018-11-26T10:05:04.417Z,5.97
2018-11-26T10:07:31.642Z,5.99
2018-11-26T10:10:06.041Z,6.01
2018-11-26T10:12:38.666Z,5.99
2018-11-26T10:15:18.788Z,6.04
2018-11-26T10:17:46.166Z,6.00
2018-11-26T10:20:13.502Z,6.04
2018-11-26T10:22:41.243Z,5.95
2018-11-26T10:25:12.717Z,5.90
2018-11-26T10:27:40.244Z,5.83
2018-11-26T10:30:09.929Z,5.79
2018-11-26T10:32:37.440Z,5.68
2018-11-26T10:35:05.343Z,5.69
2018-11-26T10:37:33.450Z,5.84
2018-11-26T10:40:00.712Z,5.86
2018-11-26T10:42:27.975Z,5.91
2018-11-26T10:44:55.268Z,5.90
2018-11-26T10:47:22.525Z,5.89
2018-11-26T10:49:49.773Z,5.94
2018-11-26T10:52:17.015Z,5.85
2018-11-26T10:54:44.286Z,5.92
2018-11-26T10:57:11.619Z,5.91
2018-11-26T10:59:39.153Z,5.93
2018-11-26T11:02:12.397Z,5.86
2018-11-26T11:04:39.605Z,5.78
2018-11-26T11:07:06.886Z,5.86
2018-11-26T11:09:34.181Z,5.68
2018-11-26T11:12:01.445Z,5.64
2018-11-26T11:14:40.415Z,5.65
2018-11-26T11:17:07.946Z,5.53
2018-11-26T11:19:35.161Z,5.60
2018-11-26T11:22:02.404Z,5.61
2018-11-26T11:24:29.706Z,5.66
2018-11-26T11:26:56.902Z,5.53
2018-11-26T11:29:24.173Z,5.63
2018-11-26T11:31:51.516Z,5.61
2018-11-26T11:34:18.864Z,5.67
2018-11-26T11:36:46.169Z,5.68
2018-11-26T11:39:13.402Z,5.81
2018-11-26T11:41:40.736Z,5.89
2018-11-26T11:44:07.967Z,5.85
2018-11-26T11:46:35.267Z,5.92
2018-11-26T11:49:02.518Z,5.94
2018-11-26T11:51:29.853Z,5.94
2018-11-26T11:53:57.149Z,5.93
2018-11-26T11:56:24.407Z,5.85
2018-11-26T11:58:51.703Z,5.91
2018-11-26T12:01:19.089Z,5.93
2018-11-26T12:03:46.333Z,5.92
2018-11-26T12:06:13.619Z,5.99
2018-11-26T12:08:40.810Z,5.88
2018-11-26T12:11:08.129Z,5.85
2018-11-26T12:13:35.394Z,5.91
2018-11-26T12:16:02.707Z,5.78
2018-11-26T12:18:30.002Z,5.68
2018-11-26T12:20:57.268Z,5.74
2018-11-26T12:23:24.519Z,5.78
2018-11-26T12:25:51.790Z,5.79
2018-11-26T12:28:19.041Z,5.67
2018-11-26T12:30:46.489Z,5.57
2018-11-26T12:33:13.888Z,5.68
2018-11-26T12:35:41.124Z,5.75
2018-11-26T12:38:08.411Z,5.80
2018-11-26T12:40:35.687Z,5.87
2018-11-26T12:43:03.710Z,5.61
2018-11-26T12:45:32.392Z,5.49
2018-11-26T12:47:59.790Z,5.12
2018-11-26T12:50:27.143Z,5.55
2018-11-26T12:52:54.510Z,5.59
2018-11-26T12:55:22.488Z,5.62
2018-11-26T12:57:50.328Z,5.61
2018-11-26T13:00:19.567Z,5.57
2018-11-26T13:02:52.802Z,5.63
2018-11-26T13:05:25.351Z,5.68
2018-11-26T13:07:57.620Z,5.57
2018-11-26T13:10:24.897Z,5.67
2018-11-26T13:12:52.505Z,5.62
2018-11-26T13:15:21.730Z,5.61
2018-11-26T13:17:49.216Z,5.67
2018-11-26T13:20:19.990Z,5.25
2018-11-26T13:22:47.241Z,5.77
2018-11-26T13:25:19.503Z,5.72
2018-11-26T13:27:51.035Z,5.69
2018-11-26T13:30:21.392Z,5.75
2018-11-26T13:32:49.919Z,5.77
2018-11-26T13:35:17.857Z,5.76
2018-11-26T13:37:45.101Z,5.70
2018-11-26T13:40:13.360Z,5.74
2018-11-26T13:42:40.852Z,5.70
2018-11-26T13:45:14.752Z,5.56
2018-11-26T13:47:42.396Z,5.51
2018-11-26T13:50:22.981Z,5.62
2018-11-26T13:52:49.359Z,5.55
2018-11-26T13:55:16.620Z,5.62
2018-11-26T13:57:45.304Z,5.70
2018-11-26T14:00:13.923Z,5.74
2018-11-26T14:02:41.145Z,5.73
2018-11-26T14:05:09.728Z,5.74
2018-11-26T14:07:36.979Z,5.72
2018-11-26T14:10:09.463Z,5.64
2018-11-26T14:12:37.459Z,5.57
2018-11-26T14:15:07.377Z,5.61
2018-11-26T14:17:34.643Z,5.58
2018-11-26T14:20:04.727Z,5.47
2018-11-26T14:22:32.033Z,5.53
2018-11-26T14:25:03.414Z,5.48
2018-11-26T14:27:34.626Z,5.38
2018-11-26T14:30:01.972Z,5.45
2018-11-26T14:32:29.229Z,5.52
2018-11-26T14:34:56.590Z,5.50
2018-11-26T14:37:24.976Z,5.56
2018-11-26T14:39:52.404Z,5.49
2018-11-26T14:42:19.691Z,5.49
2018-11-26T14:44:55.460Z,5.45
2018-11-26T14:47:22.819Z,5.48
2018-11-26T14:49:50.011Z,5.39
2018-11-26T14:52:17.314Z,5.33
2018-11-26T14:54:49.276Z,5.37
2018-11-26T14:57:16.871Z,5.36
2018-11-26T14:59:44.090Z,5.32
2018-11-26T15:02:11.314Z,5.35
2018-11-26T15:04:38.546Z,5.29
2018-11-26T15:07:05.850Z,5.24
2018-11-26T15:09:33.147Z,5.26
2018-11-26T15:12:00.386Z,5.26
2018-11-26T15:14:27.963Z,5.06
2018-11-26T15:16:55.208Z,4.98
2018-11-26T15:19:22.422Z,5.02
2018-11-26T15:21:49.659Z,5.07
2018-11-26T15:24:16.921Z,5.15
2018-11-26T15:26:44.224Z,5.23
2018-11-26T15:29:11.503Z,5.28
2018-11-26T15:31:38.830Z,5.24
2018-11-26T15:34:06.144Z,5.21
2018-11-26T15:36:33.332Z,5.26
2018-11-26T15:39:00.572Z,5.19
2018-11-26T15:41:27.871Z,5.16
2018-11-26T15:43:55.203Z,5.15
2018-11-26T15:46:22.405Z,5.13
2018-11-26T15:48:49.701Z,5.06
2018-11-26T15:51:17.186Z,5.05
2018-11-26T15:53:44.964Z,5.10
2018-11-26T15:56:12.433Z,5.06
2018-11-26T15:58:39.705Z,5.03
2018-11-26T16:01:06.987Z,5.06
2018-11-26T16:03:34.623Z,5.00
2018-11-26T16:06:03.846Z,5.10
2018-11-26T16:08:31.111Z,5.10
2018-11-26T16:10:58.371Z,5.10
2018-11-26T16:13:25.615Z,5.13
2018-11-26T16:15:52.904Z,5.07
2018-11-26T16:18:21.080Z,5.02
2018-11-26T16:20:49.319Z,4.99
2018-11-26T16:23:16.497Z,4.88
2018-11-26T16:25:45.039Z,4.89
2018-11-26T16:28:15.208Z,4.87
2018-11-26T16:30:42.519Z,4.81
2018-11-26T16:33:10.310Z,4.84
2018-11-26T16:35:37.591Z,4.82
2018-11-26T16:38:05.365Z,4.82
2018-11-26T16:40:32.662Z,4.88
2018-11-26T16:43:00.363Z,4.92
2018-11-26T16:45:27.922Z,4.86
2018-11-26T16:47:55.944Z,4.89
2018-11-26T16:50:24.479Z,4.82
2018-11-26T16:52:51.854Z,4.91
2018-11-26T16:55:19.014Z,5.00
2018-11-26T16:57:46.394Z,5.04
2018-11-26T17:00:15.723Z,5.06
2018-11-26T17:02:44.063Z,4.95
2018-11-26T17:05:12.712Z,4.87
2018-11-26T17:07:40.048Z,4.90
2018-11-26T17:10:08.086Z,4.94
2018-11-26T17:12:35.357Z,4.43
2018-11-26T17:15:03.282Z,4.74
2018-11-26T17:17:30.592Z,4.80
2018-11-26T17:19:57.857Z,4.88
2018-11-26T17:22:26.954Z,4.84
2018-11-26T17:24:54.280Z,4.82
2018-11-26T17:27:21.497Z,4.84
2018-11-26T17:29:48.760Z,4.89
2018-11-26T17:32:16.024Z,4.96
2018-11-26T17:34:44.989Z,4.91
2018-11-26T17:37:12.280Z,4.91
2018-11-26T17:39:43.418Z,4.96
2018-11-26T17:42:14.792Z,4.89
2018-11-26T17:44:42.828Z,4.85
2018-11-26T17:47:10.260Z,4.87
2018-11-26T17:49:37.762Z,4.90
2018-11-26T17:52:10.405Z,4.93
2018-11-26T17:54:37.742Z,4.94
2018-11-26T17:57:05.437Z,4.50
2018-11-26T17:59:32.628Z,5.03
2018-11-26T18:02:03.393Z,5.06
2018-11-26T18:04:30.782Z,5.02
2018-11-26T18:06:58.054Z,5.00
2018-11-26T18:09:25.362Z,4.98
2018-11-26T18:11:52.623Z,5.01
2018-11-26T18:14:19.869Z,4.89
2018-11-26T18:16:47.132Z,4.78
2018-11-26T18:19:16.601Z,4.79
2018-11-26T18:21:43.964Z,4.75
2018-11-26T18:24:11.217Z,4.74
2018-11-26T18:26:38.512Z,4.73
2018-11-26T18:29:06.579Z,4.73
2018-11-26T18:31:33.870Z,4.76
2018-11-26T18:34:01.088Z,4.84
2018-11-26T18:36:28.490Z,4.83
2018-11-26T18:38:55.743Z,4.73
2018-11-26T18:41:22.987Z,4.87
2018-11-26T18:43:50.286Z,4.88
2018-11-26T18:46:18.316Z,4.90
2018-11-26T18:48:45.544Z,4.94
2018-11-26T18:51:12.870Z,4.96
2018-11-26T18:53:40.294Z,4.95
2018-11-26T18:56:07.597Z,4.82
2018-11-26T18:58:35.106Z,4.79
2018-11-26T19:01:02.400Z,4.85
2018-11-26T19:03:29.631Z,4.91
2018-11-26T19:05:56.855Z,4.96
2018-11-26T19:08:24.106Z,4.92
2018-11-26T19:10:53.479Z,4.97
2018-11-26T19:13:23.841Z,5.04
2018-11-26T19:15:53.195Z,5.06
2018-11-26T19:18:21.751Z,5.14
2018-11-26T19:20:49.177Z,5.16
2018-11-26T19:23:16.451Z,5.09
2018-11-26T19:25:44.153Z,5.15
2018-11-26T19:28:11.395Z,5.12
2018-11-26T19:30:38.694Z,5.12
2018-11-26T19:33:07.238Z,5.17
2018-11-26T19:35:34.471Z,5.16
2018-11-26T19:38:01.753Z,5.20
2018-11-26T19:40:29.036Z,5.22
2018-11-26T19:42:56.278Z,5.23
2018-11-26T19:45:23.605Z,5.14
2018-11-26T19:47:50.906Z,5.09
2018-11-26T19:50:18.996Z,5.18
2018-11-26T19:52:47.546Z,5.23
2018-11-26T19:55:18.009Z,5.24
2018-11-26T19:57:45.307Z,5.15
2018-11-26T20:00:18.774Z,5.24
2018-11-26T20:02:49.675Z,5.21
2018-11-26T20:05:24.392Z,5.22
2018-11-26T20:07:51.690Z,5.18
2018-11-26T20:10:18.979Z,5.16
2018-11-26T20:12:46.278Z,5.14
2018-11-26T20:15:14.932Z,5.20
2018-11-26T20:17:42.330Z,5.23
2018-11-26T20:20:10.056Z,5.20
2018-11-26T20:22:37.483Z,5.19
2018-11-26T20:25:07.620Z,4.80
2018-11-26T20:27:48.023Z,5.14
2018-11-26T20:30:15.377Z,5.15
2018-11-26T20:32:45.194Z,5.16
2018-11-26T20:35:12.589Z,5.13
2018-11-26T20:37:39.894Z,5.09
2018-11-26T20:40:10.898Z,5.16
2018-11-26T20:42:38.513Z,5.16
2018-11-26T20:45:10.522Z,5.10
2018-11-26T20:47:37.799Z,5.16
2018-11-26T20:50:08.972Z,5.19
2018-11-26T20:52:36.160Z,5.20
2018-11-26T20:55:03.731Z,5.15
2018-11-26T21:00:23.063Z,5.12
2018-11-26T21:02:51.532Z,5.14
2018-11-26T21:05:18.904Z,5.16
2018-11-26T21:07:46.356Z,5.18
2018-11-26T21:10:14.341Z,5.25
2018-11-26T21:12:41.734Z,5.26
2018-11-26T21:15:11.688Z,4.87
2018-11-26T21:17:39.522Z,5.22
2018-11-26T21:20:12.128Z,5.22
2018-11-26T21:22:39.554Z,5.24
2018-11-26T21:25:12.588Z,5.20
2018-11-26T21:27:39.890Z,5.25
2018-11-26T21:30:13.327Z,5.25
2018-11-26T21:32:42.468Z,5.24
2018-11-26T21:35:10.752Z,5.24
2018-11-26T21:37:38.589Z,5.25
2018-11-26T21:40:11.310Z,5.28
2018-11-26T21:42:38.570Z,5.27
2018-11-26T21:45:09.808Z,5.24
2018-11-26T21:47:37.057Z,5.17
2018-11-26T21:50:08.301Z,5.18
2018-11-26T21:52:35.660Z,5.25
2018-11-26T21:55:02.879Z,5.27
2018-11-26T21:57:30.147Z,5.28
2018-11-26T21:59:57.454Z,5.34
2018-11-26T22:02:24.794Z,5.35
2018-11-26T22:04:58.514Z,5.34
2018-11-26T22:07:26.078Z,5.31
2018-11-26T22:09:53.340Z,5.30
2018-11-26T22:12:20.696Z,5.00
2018-11-26T22:14:47.931Z,5.26
2018-11-26T22:17:15.245Z,5.32
2018-11-26T22:19:42.553Z,5.24
2018-11-26T22:22:09.897Z,5.12
2018-11-26T22:24:37.139Z,5.20
2018-11-26T22:27:04.406Z,5.12
2018-11-26T22:29:31.652Z,5.18
2018-11-26T22:31:58.908Z,5.18
2018-11-26T22:34:26.218Z,5.23
2018-11-26T22:36:53.547Z,5.26
2018-11-26T22:39:20.859Z,5.16
2018-11-26T22:41:48.142Z,5.19
2018-11-26T22:44:15.780Z,5.15
2018-11-26T22:46:43.156Z,5.18
2018-11-26T22:49:10.347Z,5.18
2018-11-26T22:51:37.584Z,5.17
2018-11-26T22:54:04.984Z,5.21
2018-11-26T22:56:32.234Z,5.26
2018-11-26T22:58:59.437Z,5.26
2018-11-26T23:01:26.644Z,5.30
2018-11-26T23:03:53.872Z,5.19
2018-11-26T23:06:21.628Z,5.21
2018-11-26T23:08:48.915Z,5.21
2018-11-26T23:11:16.172Z,5.25
2018-11-26T23:13:43.430Z,5.21
2018-11-26T23:16:10.729Z,5.20
2018-11-26T23:18:37.953Z,5.20
2018-11-26T23:21:05.516Z,5.21
2018-11-26T23:23:32.775Z,5.27
2018-11-26T23:25:59.996Z,5.16
2018-11-26T23:28:27.306Z,5.18
2018-11-26T23:30:54.753Z,5.23
2018-11-26T23:33:21.974Z,5.25
2018-11-26T23:35:49.213Z,5.29
2018-11-26T23:38:16.446Z,5.36
2018-11-26T23:40:43.823Z,5.36
2018-11-26T23:43:11.219Z,5.37
2018-11-26T23:45:38.514Z,5.32
2018-11-26T23:48:06.056Z,5.27
2018-11-26T23:50:33.467Z,5.27
2018-11-26T23:53:00.742Z,5.32
2018-11-26T23:55:27.986Z,5.12
2018-11-26T23:57:55.213Z,5.18
